createdAt,value
2023-03-15T00:01:54.555Z,1.50
2023-03-15T00:04:46.565Z,0.80
2023-03-15T00:07:38.485Z,0.70
2023-03-15T00:10:30.952Z,0.40
2023-03-15T00:13:22.966Z,0.90
2023-03-15T00:16:17.560Z,0.70
2023-03-15T00:19:09.757Z,1.00
2023-03-15T00:22:01.732Z,0.70
2023-03-15T00:24:53.727Z,0.40
2023-03-15T00:27:45.700Z,0.60
2023-03-15T00:30:25.063Z,0.60
2023-03-15T00:32:59.568Z,0.70
2023-03-15T00:35:43.706Z,0.60
2023-03-15T00:38:36.117Z,0.70
2023-03-15T00:41:28.022Z,0.40
2023-03-15T00:44:04.539Z,0.70
2023-03-15T00:46:56.501Z,0.60
2023-03-15T00:49:48.537Z,0.80
2023-03-15T00:52:41.960Z,0.70
2023-03-15T00:55:34.846Z,0.50
2023-03-15T00:58:27.634Z,0.50
2023-03-15T01:01:22.188Z,0.90
2023-03-15T01:04:14.588Z,0.60
2023-03-15T01:07:06.982Z,0.60
2023-03-15T01:09:59.237Z,0.70
2023-03-15T01:12:51.394Z,0.60
2023-03-15T01:15:30.737Z,0.80
2023-03-15T01:18:22.811Z,0.80
2023-03-15T01:21:16.440Z,0.70
2023-03-15T01:24:12.989Z,1.00
2023-03-15T01:27:05.027Z,0.90
2023-03-15T01:29:57.211Z,1.10
2023-03-15T01:32:39.668Z,1.00
2023-03-15T01:35:31.862Z,0.90
2023-03-15T01:38:23.913Z,0.80
2023-03-15T01:41:20.698Z,0.80
2023-03-15T01:44:16.802Z,0.90
2023-03-15T01:47:09.220Z,0.90
2023-03-15T01:50:06.532Z,1.00
2023-03-15T01:52:43.968Z,1.20
2023-03-15T01:55:21.903Z,0.90
2023-03-15T01:58:02.065Z,1.00
2023-03-15T02:00:54.910Z,0.90
2023-03-15T02:03:51.671Z,1.10
2023-03-15T02:06:46.710Z,1.20
2023-03-15T02:09:33.878Z,1.10
2023-03-15T02:12:26.716Z,1.00
2023-03-15T02:15:18.900Z,1.40
2023-03-15T02:17:53.374Z,1.10
2023-03-15T02:20:38.543Z,1.10
2023-03-15T02:23:32.148Z,0.80
2023-03-15T02:26:31.043Z,1.20
2023-03-15T02:29:25.308Z,1.00
2023-03-15T02:32:17.295Z,1.30
2023-03-15T02:35:10.660Z,1.40
2023-03-15T02:38:03.551Z,1.10
2023-03-15T02:40:55.906Z,1.20
2023-03-15T02:43:31.634Z,1.10
2023-03-15T02:46:24.414Z,1.10
2023-03-15T02:49:19.846Z,1.00
2023-03-15T02:52:13.942Z,1.30
2023-03-15T02:55:06.806Z,1.20
2023-03-15T02:57:58.692Z,1.00
2023-03-15T03:00:52.453Z,0.80
2023-03-15T03:03:46.517Z,1.20
2023-03-15T03:06:38.507Z,1.20
2023-03-15T03:09:30.657Z,1.20
2023-03-15T03:12:22.651Z,1.20
2023-03-15T03:15:15.105Z,1.60
2023-03-15T03:18:07.412Z,1.40
2023-03-15T03:20:42.091Z,1.40
2023-03-15T03:23:35.266Z,1.30
2023-03-15T03:26:28.131Z,1.20
2023-03-15T03:29:20.282Z,1.40
2023-03-15T03:32:03.732Z,1.30
2023-03-15T03:34:49.700Z,1.20
2023-03-15T03:37:42.084Z,1.20
2023-03-15T03:40:34.125Z,1.20
2023-03-15T03:43:26.241Z,0.90
2023-03-15T03:46:18.211Z,1.40
2023-03-15T03:49:10.352Z,1.10
2023-03-15T03:52:02.397Z,0.80
2023-03-15T03:54:54.379Z,1.40
2023-03-15T03:57:46.466Z,1.80
2023-03-15T04:00:38.680Z,1.80
2023-03-15T04:03:31.116Z,1.50
2023-03-15T04:06:23.659Z,1.20
2023-03-15T04:09:16.620Z,1.30
2023-03-15T04:12:09.107Z,2.00
2023-03-15T04:15:01.108Z,1.70
2023-03-15T04:17:56.014Z,1.60
2023-03-15T04:20:29.103Z,1.80
2023-03-15T04:23:22.145Z,1.70
2023-03-15T04:26:14.655Z,1.60
2023-03-15T04:29:07.120Z,1.50
2023-03-15T04:32:01.741Z,1.60
2023-03-15T04:34:55.885Z,1.80
2023-03-15T04:37:48.170Z,1.40
2023-03-15T04:40:30.064Z,1.70
2023-03-15T04:43:22.389Z,1.50
2023-03-15T04:46:14.489Z,1.70
2023-03-15T04:49:06.604Z,1.70
2023-03-15T04:51:58.808Z,1.60
2023-03-15T04:54:51.187Z,2.20
2023-03-15T04:57:43.310Z,1.80
2023-03-15T05:00:35.692Z,2.10
2023-03-15T05:03:07.724Z,2.10
2023-03-15T05:05:59.752Z,2.10
2023-03-15T05:08:40.675Z,2.10
2023-03-15T05:11:21.547Z,1.90
2023-03-15T05:14:14.588Z,2.20
2023-03-15T05:17:06.677Z,2.00
2023-03-15T05:19:38.855Z,1.90
2023-03-15T05:22:25.403Z,2.10
2023-03-15T05:25:07.335Z,1.80
2023-03-15T05:27:59.559Z,1.80
2023-03-15T05:30:53.134Z,1.80
2023-03-15T05:33:47.019Z,1.80
2023-03-15T05:36:39.218Z,1.60
2023-03-15T05:39:34.572Z,1.60
2023-03-15T05:42:26.795Z,1.40
2023-03-15T05:44:59.575Z,1.70
2023-03-15T05:47:42.569Z,1.60
2023-03-15T05:50:27.944Z,2.10
2023-03-15T05:53:19.992Z,2.20
2023-03-15T05:55:57.189Z,1.60
2023-03-15T05:58:49.242Z,2.10
2023-03-15T06:01:41.293Z,1.70
2023-03-15T06:04:33.465Z,2.00
2023-03-15T06:07:25.531Z,1.50
2023-03-15T06:10:07.989Z,1.70
2023-03-15T06:13:00.044Z,1.90
2023-03-15T06:15:52.263Z,2.30
2023-03-15T06:18:24.274Z,1.80
2023-03-15T06:21:16.268Z,1.70
2023-03-15T06:24:10.092Z,1.90
2023-03-15T06:26:46.945Z,1.40
2023-03-15T06:29:39.231Z,1.60
2023-03-15T06:32:16.240Z,1.40
2023-03-15T06:34:50.588Z,1.30
2023-03-15T06:37:42.919Z,1.90
2023-03-15T06:40:34.890Z,1.00
2023-03-15T06:43:26.839Z,1.50
2023-03-15T06:46:18.868Z,1.30
2023-03-15T06:49:10.933Z,1.40
2023-03-15T06:52:02.989Z,1.40
2023-03-15T06:54:38.146Z,1.20
2023-03-15T06:57:30.140Z,1.40
2023-03-15T07:00:23.352Z,1.40
2023-03-15T07:03:15.421Z,2.20
2023-03-15T07:06:08.134Z,2.60
2023-03-15T07:09:00.166Z,2.10
2023-03-15T07:11:52.162Z,2.70
2023-03-15T07:14:46.603Z,2.20
2023-03-15T07:17:38.654Z,2.20
2023-03-15T07:20:31.529Z,1.50
2023-03-15T07:23:23.610Z,1.80
2023-03-15T07:26:04.532Z,1.60
2023-03-15T07:28:56.510Z,1.80
2023-03-15T07:31:38.632Z,1.40
2023-03-15T07:34:30.604Z,1.20
2023-03-15T07:37:05.799Z,1.50
2023-03-15T07:39:58.607Z,2.10
2023-03-15T07:42:42.177Z,1.50
2023-03-15T07:45:30.560Z,1.60
2023-03-15T07:48:05.160Z,1.30
2023-03-15T07:50:43.021Z,1.20
2023-03-15T07:53:17.546Z,1.40
2023-03-15T07:56:10.090Z,1.80
2023-03-15T07:59:02.087Z,1.80
2023-03-15T08:01:54.215Z,1.30
2023-03-15T08:04:29.301Z,2.10
2023-03-15T08:07:21.516Z,1.30
2023-03-15T08:10:06.178Z,1.60
2023-03-15T08:12:58.281Z,2.50
2023-03-15T08:15:32.881Z,1.80
2023-03-15T08:18:25.086Z,2.20
2023-03-15T08:21:08.301Z,2.30
2023-03-15T08:24:00.896Z,1.30
2023-03-15T08:26:52.890Z,1.90
2023-03-15T08:29:45.050Z,2.20
2023-03-15T08:32:17.248Z,1.70
2023-03-15T08:34:53.093Z,2.00
2023-03-15T08:37:28.056Z,1.90
2023-03-15T08:43:08.344Z,1.30
2023-03-15T08:46:00.736Z,1.50
2023-03-15T08:48:53.555Z,1.20
2023-03-15T08:51:25.497Z,1.60
2023-03-15T08:54:17.525Z,1.90
2023-03-15T08:57:09.686Z,1.50
2023-03-15T09:00:07.367Z,1.10
2023-03-15T09:02:59.538Z,1.80
2023-03-15T09:05:40.493Z,1.50
2023-03-15T09:08:33.289Z,1.80
2023-03-15T09:11:25.931Z,1.80
2023-03-15T09:14:08.074Z,1.30
2023-03-15T09:17:00.183Z,1.10
2023-03-15T09:19:52.476Z,1.20
2023-03-15T09:22:45.425Z,1.20
2023-03-15T09:25:38.209Z,1.40
2023-03-15T09:28:19.063Z,2.10
2023-03-15T09:31:11.575Z,1.20
2023-03-15T09:34:04.845Z,1.10
2023-03-15T09:36:57.007Z,1.10
2023-03-15T09:39:49.019Z,1.50
2023-03-15T09:42:56.053Z,2.00
2023-03-15T09:46:12.075Z,1.40
2023-03-15T09:49:13.538Z,1.10
2023-03-15T09:52:00.571Z,1.30
2023-03-15T09:54:57.992Z,2.00
2023-03-15T09:57:53.265Z,1.30
2023-03-15T10:00:48.716Z,0.90
2023-03-15T10:03:28.541Z,1.20
2023-03-15T10:06:18.261Z,1.10
2023-03-15T10:09:16.416Z,1.50
2023-03-15T10:12:13.406Z,1.30
2023-03-15T10:15:05.697Z,1.00
2023-03-15T10:18:15.467Z,1.10
2023-03-15T10:21:14.322Z,1.40
2023-03-15T10:24:13.900Z,1.20
2023-03-15T10:27:15.561Z,1.20
2023-03-15T10:30:01.154Z,1.10
2023-03-15T10:32:57.659Z,1.40
2023-03-15T10:35:52.431Z,1.10
2023-03-15T10:38:50.416Z,1.40
2023-03-15T10:41:43.809Z,1.20
2023-03-15T10:44:39.474Z,1.40
2023-03-15T10:47:31.492Z,1.30
2023-03-15T10:50:29.879Z,1.00
2023-03-15T10:53:25.555Z,0.90
2023-03-15T10:56:25.849Z,1.00
2023-03-15T10:59:24.269Z,1.60
2023-03-15T11:02:24.426Z,1.90
2023-03-15T11:05:20.751Z,1.20
2023-03-15T11:08:17.097Z,0.90
2023-03-15T11:11:00.962Z,1.00
2023-03-15T11:14:02.252Z,1.40
2023-03-15T11:16:38.779Z,1.70
2023-03-15T11:19:33.633Z,3.30
2023-03-15T11:22:15.234Z,2.30
2023-03-15T11:25:13.016Z,1.70
2023-03-15T11:28:06.293Z,1.00
2023-03-15T11:30:48.769Z,1.90
2023-03-15T11:33:48.422Z,2.40
2023-03-15T11:36:46.133Z,1.00
2023-03-15T11:39:45.518Z,1.30
2023-03-15T11:42:45.182Z,1.00
2023-03-15T11:45:35.656Z,0.80
2023-03-15T11:48:32.312Z,0.90
2023-03-15T11:51:24.929Z,1.10
2023-03-15T11:54:09.174Z,1.00
2023-03-15T11:57:06.426Z,1.60
2023-03-15T11:59:58.790Z,1.30
2023-03-15T12:06:07.565Z,1.70
2023-03-15T12:08:59.732Z,2.30
2023-03-15T12:11:51.777Z,1.40
2023-03-15T12:14:31.704Z,1.50
2023-03-15T12:17:46.623Z,1.30
2023-03-15T12:20:37.312Z,1.10
2023-03-15T12:23:39.136Z,1.40
2023-03-15T12:26:42.079Z,1.10
2023-03-15T12:29:22.824Z,1.70
2023-03-15T12:32:18.243Z,1.30
2023-03-15T12:34:54.636Z,1.10
2023-03-15T12:37:44.535Z,1.60
2023-03-15T12:40:48.978Z,1.60
2023-03-15T12:43:44.038Z,1.50
2023-03-15T12:46:57.894Z,1.90
2023-03-15T12:49:50.273Z,1.30
2023-03-15T12:52:44.750Z,3.30
2023-03-15T12:55:19.281Z,2.10
2023-03-15T12:58:14.409Z,1.60
2023-03-15T13:01:09.084Z,1.40
2023-03-15T13:04:04.000Z,1.60
2023-03-15T13:07:05.249Z,1.30
2023-03-15T13:10:11.333Z,1.20
2023-03-15T13:13:15.217Z,1.30
2023-03-15T13:16:22.872Z,1.30
2023-03-15T13:19:23.698Z,1.20
2023-03-15T13:22:25.561Z,1.50
2023-03-15T13:25:22.261Z,2.00
2023-03-15T13:28:23.498Z,1.90
2023-03-15T13:31:22.101Z,2.20
2023-03-15T13:34:15.300Z,1.70
2023-03-15T13:37:15.820Z,2.80
2023-03-15T13:40:15.977Z,2.40
2023-03-15T13:43:12.923Z,4.10
2023-03-15T13:46:05.205Z,5.40
2023-03-15T13:48:58.056Z,3.10
2023-03-15T13:51:40.762Z,3.70
2023-03-15T13:54:19.549Z,3.20
2023-03-15T13:57:06.019Z,2.80
2023-03-15T14:00:01.590Z,2.20
2023-03-15T14:02:49.651Z,1.90
2023-03-15T14:05:48.867Z,1.30
2023-03-15T14:08:33.693Z,2.30
2023-03-15T14:11:38.588Z,1.70
2023-03-15T14:14:32.604Z,1.40
2023-03-15T14:17:29.768Z,1.10
2023-03-15T14:20:28.882Z,1.30
2023-03-15T14:23:25.174Z,1.60
2023-03-15T14:26:21.648Z,1.50
2023-03-15T14:29:19.599Z,2.00
2023-03-15T14:32:05.961Z,1.90
2023-03-15T14:35:03.304Z,2.00
2023-03-15T14:38:07.551Z,1.20
2023-03-15T14:41:23.550Z,1.80
2023-03-15T14:44:15.581Z,1.10
2023-03-15T14:47:16.556Z,1.40
2023-03-15T14:50:15.585Z,1.80
2023-03-15T14:52:52.316Z,1.70
2023-03-15T14:55:44.467Z,1.60
2023-03-15T14:58:27.913Z,2.60
2023-03-15T15:01:03.859Z,2.70
2023-03-15T15:03:43.166Z,1.80
2023-03-15T15:06:36.742Z,1.80
2023-03-15T15:09:31.032Z,2.60
2023-03-15T15:12:23.074Z,3.20
2023-03-15T15:15:20.565Z,4.20
2023-03-15T15:18:12.584Z,2.50
2023-03-15T15:20:47.630Z,2.80
2023-03-15T15:23:57.000Z,2.90
2023-03-15T15:26:49.873Z,2.60
2023-03-15T15:29:41.978Z,2.40
2023-03-15T15:32:34.021Z,2.60
2023-03-15T15:35:29.140Z,1.40
2023-03-15T15:46:21.043Z,3.90
2023-03-15T15:49:13.561Z,3.40
2023-03-15T15:52:05.999Z,4.20
2023-03-15T15:54:54.470Z,4.00
2023-03-15T15:57:48.745Z,3.30
2023-03-15T16:00:27.952Z,4.40
2023-03-15T16:03:20.289Z,3.30
2023-03-15T16:06:18.885Z,2.50
2023-03-15T16:09:13.304Z,3.00
2023-03-15T16:12:29.380Z,2.10
2023-03-15T16:15:21.933Z,3.00
2023-03-15T16:18:15.533Z,4.50
2023-03-15T16:21:08.045Z,4.80
2023-03-15T16:24:04.572Z,6.10
2023-03-15T16:27:00.882Z,7.20
2023-03-15T16:29:55.741Z,8.40
2023-03-15T16:32:47.788Z,7.60
2023-03-15T16:35:39.992Z,7.40
2023-03-15T16:38:33.816Z,6.70
2023-03-15T16:41:26.428Z,5.20
2023-03-15T16:44:42.765Z,5.90
2023-03-15T16:47:34.920Z,6.70
2023-03-15T16:50:23.262Z,8.10
2023-03-15T16:53:16.033Z,16.50
2023-03-15T16:56:11.322Z,10.40
2023-03-15T16:59:04.623Z,8.00
2023-03-15T17:01:56.728Z,5.70
2023-03-15T17:04:49.861Z,7.40
2023-03-15T17:07:41.982Z,5.90
2023-03-15T17:10:23.146Z,7.10
2023-03-15T17:13:18.562Z,9.50
2023-03-15T17:16:13.583Z,10.00
2023-03-15T17:19:07.236Z,8.80
2023-03-15T17:21:59.284Z,16.50
2023-03-15T17:24:51.752Z,21.90
2023-03-15T17:27:45.308Z,19.60
2023-03-15T17:30:28.577Z,24.60
2023-03-15T17:33:09.961Z,18.50
2023-03-15T17:36:04.754Z,24.00
2023-03-15T17:38:57.686Z,19.60
2023-03-15T17:41:50.266Z,20.10
2023-03-15T17:44:42.833Z,29.20
2023-03-15T17:47:19.954Z,20.80
2023-03-15T17:50:14.001Z,24.80
2023-03-15T17:52:52.308Z,19.50
2023-03-15T17:55:45.512Z,25.90
2023-03-15T17:58:27.472Z,22.30
2023-03-15T18:01:23.100Z,37.40
2023-03-15T18:04:17.034Z,36.40
2023-03-15T18:07:11.318Z,32.10
2023-03-15T18:10:05.047Z,44.50
2023-03-15T18:12:54.631Z,33.50
2023-03-15T18:15:30.228Z,18.90
2023-03-15T18:18:22.974Z,17.30
2023-03-15T18:21:18.592Z,17.20
2023-03-15T18:27:06.666Z,11.60
2023-03-15T18:29:59.506Z,14.40
2023-03-15T18:32:53.417Z,15.60
2023-03-15T18:35:38.352Z,18.70
2023-03-15T18:38:13.320Z,18.00
2023-03-15T18:40:51.077Z,19.60
2023-03-15T18:43:49.378Z,15.00
2023-03-15T18:46:43.835Z,17.50
2023-03-15T18:49:35.869Z,14.80
2023-03-15T18:52:24.605Z,13.60
2023-03-15T18:55:09.567Z,15.80
2023-03-15T18:57:48.984Z,21.50
2023-03-15T19:00:42.063Z,25.70
2023-03-15T19:03:34.064Z,28.70
2023-03-15T19:06:26.754Z,28.90
2023-03-15T19:09:18.907Z,30.90
2023-03-15T19:14:26.464Z,31.90
2023-03-15T19:17:18.465Z,29.80
2023-03-15T19:20:15.437Z,28.30
2023-03-15T19:22:56.731Z,31.50
2023-03-15T19:25:46.574Z,26.00
2023-03-15T19:28:38.882Z,29.30
2023-03-15T19:31:30.881Z,28.50
2023-03-15T19:34:24.714Z,27.80
2023-03-15T19:36:59.454Z,30.70
2023-03-15T19:39:52.062Z,37.80
2023-03-15T19:42:44.149Z,55.50
2023-03-15T19:45:36.190Z,58.40
2023-03-15T19:48:28.503Z,48.60
2023-03-15T19:51:02.984Z,41.80
2023-03-15T19:53:40.004Z,36.60
2023-03-15T19:56:32.016Z,33.70
2023-03-15T19:59:24.125Z,30.10
2023-03-15T20:02:05.675Z,30.30
2023-03-15T20:04:58.112Z,28.10
2023-03-15T20:07:51.726Z,35.50
2023-03-15T20:10:44.631Z,53.10
2023-03-15T20:13:37.246Z,44.90
2023-03-15T20:16:18.130Z,26.50
2023-03-15T20:19:10.221Z,23.20
2023-03-15T20:22:02.257Z,17.00
2023-03-15T20:24:44.255Z,13.90
2023-03-15T20:27:37.249Z,13.90
2023-03-15T20:30:20.977Z,14.20
2023-03-15T20:33:13.425Z,16.50
2023-03-15T20:35:50.833Z,14.90
2023-03-15T20:38:34.226Z,15.60
2023-03-15T20:41:26.216Z,20.60
2023-03-15T20:44:19.633Z,25.90
2023-03-15T20:47:00.651Z,31.90
2023-03-15T20:49:38.934Z,32.70
2023-03-15T20:52:27.144Z,28.10
2023-03-15T20:55:03.573Z,25.30
2023-03-15T20:57:56.131Z,22.60
2023-03-15T21:00:48.330Z,20.50
2023-03-15T21:03:41.426Z,20.40
2023-03-15T21:06:26.557Z,19.60
2023-03-15T21:09:18.562Z,21.20
2023-03-15T21:12:11.204Z,19.20
2023-03-15T21:15:03.460Z,20.00
2023-03-15T21:17:45.893Z,16.50
2023-03-15T21:20:26.604Z,15.80
2023-03-15T21:23:18.575Z,14.90
2023-03-15T21:26:02.019Z,21.10
2023-03-15T21:28:54.010Z,38.60
2023-03-15T21:31:46.115Z,41.60
2023-03-15T21:34:38.247Z,34.70
2023-03-15T21:37:30.603Z,24.00
2023-03-15T21:40:23.033Z,16.90
2023-03-15T21:43:16.249Z,14.60
2023-03-15T21:46:11.730Z,13.30
2023-03-15T21:49:04.134Z,12.30
2023-03-15T21:51:56.207Z,12.90
2023-03-15T21:54:48.382Z,12.30
2023-03-15T21:57:40.432Z,13.50
2023-03-15T22:00:32.869Z,14.10
2023-03-15T22:03:25.278Z,16.20
2023-03-15T22:06:18.121Z,37.90
2023-03-15T22:09:06.489Z,43.80
2023-03-15T22:11:58.561Z,36.70
2023-03-15T22:15:00.149Z,31.30
2023-03-15T22:17:56.904Z,22.60
2023-03-15T22:20:32.276Z,23.70
2023-03-15T22:23:24.721Z,19.80
2023-03-15T22:26:16.706Z,17.30
2023-03-15T22:29:17.198Z,14.80
2023-03-15T22:31:49.054Z,15.00
2023-03-15T22:34:29.784Z,14.30
2023-03-15T22:37:21.803Z,13.60
2023-03-15T22:40:15.509Z,14.00
2023-03-15T22:42:57.484Z,13.10
2023-03-15T22:45:40.608Z,12.10
2023-03-15T22:48:33.221Z,12.50
2023-03-15T22:51:25.284Z,12.60
2023-03-15T22:54:17.323Z,11.40
2023-03-15T22:56:52.038Z,12.90
2023-03-15T22:59:44.117Z,13.40
2023-03-15T23:02:36.257Z,12.60
2023-03-15T23:05:12.680Z,12.80
2023-03-15T23:08:04.660Z,11.90
2023-03-15T23:10:59.039Z,12.00
2023-03-15T23:13:42.145Z,11.70
2023-03-15T23:16:19.584Z,12.00
2023-03-15T23:18:54.086Z,12.20
2023-03-15T23:21:46.111Z,12.00
2023-03-15T23:24:28.255Z,10.90
2023-03-15T23:27:04.051Z,10.80
2023-03-15T23:29:56.077Z,11.70
2023-03-15T23:32:48.872Z,11.00
2023-03-15T23:35:31.376Z,11.50
2023-03-15T23:38:23.366Z,11.60
2023-03-15T23:41:15.393Z,11.00
2023-03-15T23:43:52.447Z,10.90
2023-03-15T23:46:26.833Z,11.10
2023-03-15T23:49:01.454Z,10.70
2023-03-15T23:51:43.882Z,9.70
2023-03-15T23:54:40.248Z,9.40
2023-03-15T23:57:32.645Z,9.20
